• Join FlightAware (Why Join?)
  • Login
  • US Flag 
03:07PM EDT


 

Airport Tracker/Info


-or-


 

Live Flight TrackerFlight Track Log ✈ DAL268 ✈ 04-Jul-2013 ✈ KSFO - KJFK

Flight Track Log - Related Links

Times and Time Zones

All times are in EDT time to prevent confusion due to time zone crossing. See the DAL268 flight status page for this flight to view local times or setup timezone preferences in your user account.

Time Position Orientation Groundspeed Altitude Reporting Facility
EDT Latitude Longitude Course Direction KTS MPH feet Rate Location/Type
02:15PM 37.6160 -122.3810 North 11 13  Level FlightAware
02:16PM 37.6150 -122.3800 142° Southeast 60 Level FlightAware
02:19PM 37.8104 -122.1730 38° Northeast  Level FlightAware Approximate
02:19PM 37.6100 -122.3840 38° Northeast 19 22  Level FlightAware
02:20PM 37.6070 -122.3840 180° South 29 33 120 Level FlightAware
02:23PM 37.6070 -122.3800 58° Northeast 15 17 120 Level FlightAware
02:24PM 37.6170 -122.3740 25° Northeast 145 167 900 Level FlightAware
02:24PM 37.6292 -122.3660 27° Northeast 158 182 700 2,400 Climbing FlightAware ADS-B
02:24PM 37.6353 -122.3610 33° Northeast 164 189 1,100 2,220 Climbing FlightAware ADS-B
02:24PM 37.6389 -122.3570 41° Northeast 170 196 1,300 1,800 Climbing FlightAware ADS-B
02:24PM 37.6413 -122.3540 45° Northeast 178 205 1,400 1,080 Climbing FlightAware ADS-B
02:25PM 37.6487 -122.3450 44° Northeast 194 223 1,600 1,020 Climbing FlightAware ADS-B
02:25PM 37.6560 -122.3350 47° Northeast 209 241 1,800 1,500 Climbing FlightAware ADS-B
02:25PM 37.6675 -122.3200 46° Northeast 224 258 2,300 1,860 Climbing FlightAware ADS-B
02:25PM 37.6790 -122.3050 46° Northeast 238 274 2,800 2,040 Climbing FlightAware ADS-B
02:26PM 37.6915 -122.2890 45° Northeast 245 282 3,400 1,740 Climbing FlightAware ADS-B
02:26PM 37.7066 -122.2690 46° Northeast 267 307 3,800 2,400 Climbing FlightAware ADS-B
02:26PM 37.7219 -122.2490 46° Northeast 262 302 4,800 2,460 Climbing FlightAware ADS-B
02:27PM 37.7587 -122.2130 38° Northeast 276 318 6,100 2,220 Climbing FlightAware ADS-B
02:27PM 37.7739 -122.1980 38° Northeast 278 320 6,800 2,880 Climbing FlightAware ADS-B
02:27PM 37.7948 -122.1770 38° Northeast 276 318 7,800 2,700 Climbing FlightAware ADS-B
02:28PM 37.8103 -122.1620 37° Northeast 281 323 8,400 2,100 Climbing FlightAware ADS-B
02:28PM 37.8263 -122.1470 37° Northeast 288 331 8,900 2,100 Climbing FlightAware ADS-B
02:28PM 37.8427 -122.1310 38° Northeast 294 338 9,500 1,740 Climbing FlightAware ADS-B
02:28PM 37.8606 -122.1140 37° Northeast 308 354 9,800 1,020 Climbing FlightAware ADS-B
02:29PM 37.8985 -122.0780 37° Northeast 344 396 10,300 1,020 Climbing FlightAware ADS-B
02:29PM 37.9428 -122.0350 37° Northeast 374 430 10,900 1,980 Climbing FlightAware ADS-B
02:30PM 38.0026 -121.9780 37° Northeast 374 430 12,900 2,040 Climbing FlightAware ADS-B
02:31PM 38.0477 -121.9350 37° Northeast 395 455 13,500 1,620 Climbing FlightAware ADS-B
02:32PM 38.1430 -121.8430 37° Northeast 413 475 15,500 1,500 Climbing FlightAware
02:32PM 38.2060 -121.7810 38° Northeast 437 503 16,200 1,140 Climbing FlightAware
02:33PM 38.2780 -121.7120 37° Northeast 458 527 17,100 1,440 Climbing FlightAware
02:34PM 38.3430 -121.6500 37° Northeast 465 535 18,200 1,680 Climbing FlightAware
02:34PM 38.4090 -121.5850 38° Northeast 471 542 19,300 1,740 Climbing FlightAware
02:35PM 38.4690 -121.5090 45° Northeast 470 541 20,500 1,800 Climbing FlightAware
02:35PM 38.4977 -121.4610 53° Northeast 475 547 21,100 1,500 Climbing FlightAware ADS-B
02:36PM 38.5434 -121.3820 53° Northeast 484 557 21,900 2,100 Climbing FlightAware ADS-B
02:37PM 38.5897 -121.3020 53° Northeast 470 541 23,600 1,860 Climbing FlightAware ADS-B
02:38PM 38.6860 -121.1350 54° Northeast 482 555 25,300 1,140 Climbing FlightAware
02:38PM 38.7235 -121.0700 54° Northeast 480 552 25,600 600 Climbing FlightAware ADS-B
02:39PM 38.8000 -120.9380 53° Northeast 513 590 26,200 900 Climbing FlightAware
02:40PM 38.8580 -120.8370 54° Northeast 517 595 27,100 1,380 Climbing FlightAware
02:41PM 38.9190 -120.7310 53° Northeast 516 594 28,200 1,560 Climbing FlightAware
02:41PM 38.9800 -120.6260 53° Northeast 514 592 29,300 1,320 Climbing FlightAware
02:42PM 39.0420 -120.5200 53° Northeast 517 595 30,100 900 Climbing FlightAware
02:43PM 39.0980 -120.4210 54° Northeast 525 604 30,600 900 Climbing FlightAware
02:43PM 39.1610 -120.3110 54° Northeast 525 604 31,400 1,080 Climbing FlightAware
02:44PM 39.2230 -120.2030 53° Northeast 526 605 32,200 900 Climbing FlightAware
02:45PM 39.2690 -120.1210 54° Northeast 526 605 32,800 900 Climbing FlightAware
02:46PM 39.3350 -120.0050 54° Northeast 523 602 33,600 1,080 Climbing FlightAware
02:46PM 39.3940 -119.9010 54° Northeast 521 600 34,300 900 Climbing FlightAware
02:47PM 39.4510 -119.7990 54° Northeast 521 600 34,900 540 Climbing FlightAware
02:48PM 39.5020 -119.7070 54° Northeast 519 597 35,000 60 Climbing FlightAware
02:48PM 39.5840 -119.5610 54° Northeast 520 598 35,000  Level FlightAware
02:49PM 39.6400 -119.4610 54° Northeast 522 601 35,000  Level FlightAware
02:50PM 39.6940 -119.3630 54° Northeast 523 602 35,000  Level FlightAware
02:50PM 39.7590 -119.2470 54° Northeast 523 602 35,000  Level FlightAware
02:51PM 39.8130 -119.1480 55° Northeast 524 603 35,000  Level FlightAware
02:52PM 39.8720 -119.0420 54° Northeast 524 603 35,000  Level FlightAware
02:52PM 39.9290 -118.9390 54° Northeast 522 601 35,000  Level FlightAware
02:53PM 39.9860 -118.8330 55° Northeast 521 600 35,000  Level FlightAware
02:54PM 40.0430 -118.7290 54° Northeast 520 598 35,000  Level FlightAware
02:54PM 40.0920 -118.6380 55° Northeast 520 598 35,000  Level FlightAware
02:55PM 40.1400 -118.5220 62° Northeast 516 594 35,000  Level FlightAware
02:56PM 40.1750 -118.4000 69° East 516 594 35,000  Level FlightAware
02:57PM 40.2070 -118.2840 70° East 516 594 35,000  Level FlightAware
02:57PM 40.2400 -118.1590 71° East 517 595 35,000  Level FlightAware
02:58PM 40.2720 -118.0420 70° East 518 596 35,000  Level FlightAware
02:59PM 40.3000 -117.9420 70° East 518 596 35,000  Level FlightAware
02:59PM 40.3250 -117.8490 71° East 518 596 35,000  Level FlightAware
03:00PM 40.3550 -117.7410 70° East 518 596 35,000  Level FlightAware
03:01PM 40.4100 -117.5450 70° East 518 596 35,000  Level FlightAware
03:02PM 40.4340 -117.4570 70° East 518 596 35,000  Level FlightAware
03:02PM 40.4590 -117.3660 70° East 518 596 35,000  Level FlightAware
03:03PM 40.4930 -117.2430 70° East 518 596 35,000  Level FlightAware
03:04PM 40.5170 -117.1570 70° East 518 596 35,000  Level FlightAware
03:05PM 40.5500 -117.0360 70° East 518 596 35,000  Level FlightAware
03:05PM 40.5750 -116.9460 70° East 518 596 35,000  Level FlightAware
03:06PM 40.6100 -116.8220 70° East 518 596 35,000  Level FlightAware
03:07PM 40.6350 -116.7290 70° East 518 596 35,000  Level FlightAware
03:07PM 40.6690 -116.6050 70° East 518 596 35,000  Level FlightAware
03:09PM 40.8013 -116.0600 72° East 516 594 35,000  Level FlightAware ADS-B
03:10PM 40.8255 -115.9690 71° East 515 593 35,000  Level FlightAware ADS-B
03:10PM 40.8491 -115.8790 71° East 514 592 35,000  Level FlightAware ADS-B
03:11PM 40.8754 -115.7790 71° East 514 592 35,000  Level FlightAware ADS-B
03:13PM 40.9955 -115.3160 71° East 514 592 35,000  Level FlightAware ADS-B
03:14PM 41.0210 -115.2170 71° East 514 592 35,000  Level FlightAware ADS-B
03:14PM 41.0440 -115.1260 71° East 515 593 35,000  Level FlightAware ADS-B
03:15PM 41.0674 -115.0340 71° East 515 593 35,000  Level FlightAware ADS-B
03:15PM 41.0902 -114.9440 71° East 516 594 35,000  Level FlightAware ADS-B
03:16PM 41.1129 -114.8540 71° East 515 593 35,000  Level FlightAware ADS-B
03:17PM 41.1590 -114.6700 72° East 515 593 35,000  Level FlightAware ADS-B
03:17PM 41.1824 -114.5770 71° East 515 593 35,000  Level FlightAware ADS-B
03:18PM 41.2054 -114.4850 72° East 515 593 35,000  Level FlightAware ADS-B
03:18PM 41.2281 -114.3930 72° East 514 592 35,000  Level FlightAware ADS-B
03:19PM 41.2509 -114.3000 72° East 513 590 35,000  Level FlightAware ADS-B
03:19PM 41.2729 -114.2110 72° East 512 589 35,000  Level FlightAware ADS-B
03:20PM 41.3008 -114.0970 72° East 512 589 35,000  Level FlightAware ADS-B
03:20PM 41.3227 -114.0070 72° East 509 586 35,000  Level FlightAware ADS-B
03:21PM 41.3446 -113.9160 72° East 508 585 35,000  Level FlightAware ADS-B
03:21PM 41.3553 -113.8680 73° East 507 583 35,000  Level FlightAware ADS-B
03:22PM 41.3698 -113.7860 77° East 506 582 35,000  Level FlightAware ADS-B
03:22PM 41.3823 -113.6910 80° East 506 582 35,000  Level FlightAware ADS-B
03:23PM 41.3944 -113.5980 80° East 506 582 35,000  Level FlightAware ADS-B
03:23PM 41.4068 -113.5010 80° East 505 581 35,000  Level FlightAware ADS-B
03:24PM 41.4185 -113.4080 80° East 504 580 35,000  Level FlightAware ADS-B
03:24PM 41.4301 -113.3160 80° East 504 580 35,000  Level FlightAware ADS-B
03:25PM 41.4418 -113.2220 81° East 504 580 35,000  Level FlightAware ADS-B
03:25PM 41.4534 -113.1280 81° East 505 581 35,000  Level FlightAware ADS-B
03:26PM 41.4650 -113.0340 81° East 505 581 35,000  Level FlightAware ADS-B
03:26PM 41.4763 -112.9420 81° East 504 580 35,000  Level FlightAware ADS-B
03:27PM 41.4884 -112.8420 81° East 503 579 35,000  Level FlightAware ADS-B
03:28PM 41.5034 -112.7190 81° East 502 578 35,000  Level FlightAware ADS-B
03:28PM 41.5173 -112.6020 81° East 502 578 35,000  Level FlightAware ADS-B
03:29PM 41.5319 -112.4790 81° East 501 577 35,000  Level FlightAware ADS-B
03:29PM 41.5424 -112.3820 82° East 502 578 35,000  Level FlightAware ADS-B
03:30PM 41.5530 -112.2800 82° East 502 578 35,000  Level FlightAware ADS-B
03:30PM 41.5627 -112.1850 82° East 502 578 35,000  Level FlightAware ADS-B
03:31PM 41.5754 -112.0630 82° East 503 579 35,000  Level FlightAware ADS-B
03:32PM 41.5852 -111.9670 82° East 503 579 35,000  Level FlightAware ADS-B
03:32PM 41.5954 -111.8670 82° East 503 579 35,000  Level FlightAware ADS-B
03:33PM 41.6050 -111.7730 82° East 502 578 35,000  Level FlightAware ADS-B
03:33PM 41.6156 -111.6670 82° East 502 578 35,000  Level FlightAware ADS-B
03:34PM 41.6249 -111.5730 82° East 502 578 35,000  Level FlightAware ADS-B
03:34PM 41.6339 -111.4810 83° East 502 578 35,000  Level FlightAware ADS-B
03:35PM 41.6429 -111.3890 83° East 500 575 35,000  Level FlightAware ADS-B
03:35PM 41.6531 -111.2840 83° East 500 575 35,000  Level FlightAware ADS-B
03:36PM 41.6619 -111.1920 83° East 501 577 35,000  Level FlightAware ADS-B
03:36PM 41.6706 -111.1000 83° East 501 577 35,000  Level FlightAware ADS-B
03:37PM 41.6793 -111.0080 83° East 500 575 35,000  Level FlightAware ADS-B
03:37PM 41.6883 -110.9110 83° East 501 577 35,000  Level FlightAware ADS-B
03:38PM 41.6972 -110.8150 83° East 500 575 35,000  Level FlightAware ADS-B
03:38PM 41.7058 -110.7210 83° East 500 575 35,000  Level FlightAware ADS-B
03:40PM 41.7286 -110.4656 83° East 495 570 35,000 60 Level Salt Lake Center
03:45PM 41.8080 -109.5280 83° East 491 565 35,500 180 Climbing FlightAware
03:46PM 41.8220 -109.3520 84° East 491 565 36,400 960 Climbing FlightAware
03:47PM 41.8320 -109.2250 84° East 492 566 36,900 420 Climbing FlightAware
03:47PM 41.8410 -109.1030 84° East 492 566 37,000 60 Climbing FlightAware
03:48PM 41.8510 -108.9760 84° East 490 564 37,000  Level FlightAware
03:49PM 41.8600 -108.8550 84° East 487 560 37,000  Level FlightAware
03:49PM 41.8700 -108.7170 84° East 482 555 37,000  Level FlightAware
03:50PM 41.8790 -108.6010 84° East 478 550 37,000  Level FlightAware
03:51PM 41.8880 -108.4720 85° East 475 547 37,000  Level FlightAware
03:51PM 41.8970 -108.3530 84° East 474 545 37,000  Level FlightAware
03:52PM 41.9050 -108.2280 85° East 473 544 37,000  Level FlightAware
03:53PM 41.9130 -108.1140 85° East 472 543 37,000  Level FlightAware
03:54PM 41.9220 -107.9780 85° East 473 544 37,000  Level FlightAware
03:55PM 41.9310 -107.8360 85° East 474 545 37,000  Level FlightAware
03:55PM 41.9370 -107.7430 85° East 474 545 37,000  Level FlightAware
03:56PM 41.9460 -107.6180 84° East 474 545 37,000  Level FlightAware
03:57PM 41.9510 -107.5280 86° East 474 545 37,000  Level FlightAware
03:57PM 41.9590 -107.4140 85° East 474 545 37,000  Level FlightAware
03:58PM 41.9650 -107.3240 85° East 474 545 37,000  Level FlightAware
03:59PM 41.9730 -107.1990 85° East 474 545 37,000  Level FlightAware
03:59PM 41.9790 -107.1090 85° East 474 545 37,000  Level FlightAware
04:00PM 41.9810 -107.0790 85° East 474 545 37,000  Level FlightAware
04:01PM 41.9920 -106.9090 85° East 474 545 37,000  Level FlightAware
04:02PM 42.0150 -106.4650 86° East 480 552 37,000  Level FlightAware
04:03PM 42.0270 -106.3470 82° East 480 552 37,000  Level FlightAware
04:04PM 42.0410 -106.2050 82° East 479 551 37,000  Level FlightAware
04:04PM 42.0530 -106.0890 82° East 480 552 37,000  Level FlightAware
04:05PM 42.0650 -105.9680 82° East 479 551 37,000  Level FlightAware
04:06PM 42.0780 -105.8400 82° East 478 550 37,000  Level FlightAware
04:06PM 42.0890 -105.7310 82° East 478 550 37,000  Level FlightAware
04:07PM 42.0980 -105.6410 82° East 478 550 37,000  Level FlightAware
04:08PM 42.1080 -105.5510 81° East 478 550 37,000  Level FlightAware
04:08PM 42.1220 -105.3770 84° East 479 551 37,000  Level FlightAware
04:09PM 42.1350 -105.2350 83° East 479 551 37,000  Level FlightAware
04:09PM 42.1372 -105.2140 82° East 481 554 37,000  Level FlightAware ADS-B
04:10PM 42.1454 -105.1240 83° East 481 554 37,000  Level FlightAware ADS-B
04:10PM 42.1535 -105.0340 83° East 481 554 37,000  Level FlightAware ADS-B
04:11PM 42.1615 -104.9440 83° East 478 550 37,000  Level FlightAware ADS-B
04:11PM 42.1696 -104.8540 83° East 478 550 37,000  Level FlightAware ADS-B
04:12PM 42.1775 -104.7640 83° East 476 548 37,000  Level FlightAware ADS-B
04:12PM 42.1853 -104.6750 83° East 475 547 37,000  Level FlightAware ADS-B
04:13PM 42.1930 -104.5860 83° East 474 545 37,000  Level FlightAware ADS-B
04:13PM 42.2005 -104.4990 83° East 475 547 37,000  Level FlightAware ADS-B
04:14PM 42.2083 -104.4070 83° East 475 547 37,000  Level FlightAware ADS-B
04:14PM 42.2158 -104.3180 83° East 475 547 37,000  Level FlightAware ADS-B
04:15PM 42.2231 -104.2300 84° East 475 547 37,000  Level FlightAware ADS-B
04:15PM 42.2304 -104.1420 84° East 474 545 37,000  Level FlightAware ADS-B
04:16PM 42.2376 -104.0530 84° East 474 545 37,000  Level FlightAware ADS-B
04:16PM 42.2448 -103.9640 84° East 475 547 37,000  Level FlightAware ADS-B
04:17PM 42.2519 -103.8750 84° East 474 545 37,000  Level FlightAware ADS-B
04:17PM 42.2590 -103.7870 84° East 473 544 37,000  Level FlightAware ADS-B
04:18PM 42.2659 -103.6980 84° East 472 543 37,000  Level FlightAware ADS-B
04:18PM 42.2728 -103.6110 84° East 472 543 37,000  Level FlightAware ADS-B
04:19PM 42.2795 -103.5220 84° East 470 541 37,000  Level FlightAware ADS-B
04:19PM 42.2865 -103.4310 84° East 467 537 37,000  Level FlightAware ADS-B
04:20PM 42.2930 -103.3440 84° East 465 535 37,000  Level FlightAware ADS-B
04:20PM 42.2996 -103.2570 84° East 464 534 37,000  Level FlightAware ADS-B
04:21PM 42.3073 -103.1520 84° East 464 534 37,000  Level FlightAware ADS-B
04:21PM 42.3137 -103.0650 84° East 465 535 37,000  Level FlightAware ADS-B
04:22PM 42.3209 -102.9640 84° East 465 535 37,000  Level FlightAware ADS-B
04:23PM 42.3282 -102.8610 84° East 465 535 37,000  Level FlightAware ADS-B
04:23PM 42.3350 -102.7650 84° East 466 536 37,000  Level FlightAware ADS-B
04:24PM 42.3438 -102.6380 85° East 465 535 37,000  Level FlightAware ADS-B
04:25PM 42.3520 -102.5330 84° East 464 534 37,000  Level FlightAware
04:25PM 42.3536 -102.4940 87° East 465 535 37,000  Level FlightAware ADS-B
04:25PM 42.3598 -102.4020 85° East 465 535 37,000  Level FlightAware ADS-B
04:27PM 42.3764 -102.1953 85° East 465 535 37,000  Level Minneapolis Center
04:27PM 42.3822 -102.0756 86° East 469 540 37,000  Level Denver Center
04:28PM 42.3922 -101.9075 85° East 471 542 37,000  Level Denver Center
04:29PM 42.4039 -101.7272 85° East 471 542 37,000  Level Denver Center
04:30PM 42.4158 -101.5308 85° East 470 541 37,000  Level Denver Center
04:31PM 42.4242 -101.3636 86° East 465 535 37,000  Level Denver Center
04:32PM 42.4333 -101.2242 85° East 465 535 37,000  Level Denver Center
04:33PM 42.4442 -101.0017 86° East 463 533 37,000  Level Denver Center
04:34PM 42.4531 -100.8333 86° East 466 536 37,000  Level Denver Center
04:40PM 42.5045 -99.7733 86° East 475 547 37,000  Level FlightAware ADS-B
04:41PM 42.5083 -99.6843 87° East 473 544 37,000  Level FlightAware ADS-B
04:41PM 42.5122 -99.5920 87° East 472 543 37,000  Level FlightAware ADS-B
04:42PM 42.5159 -99.5012 87° East 471 542 37,000  Level FlightAware ADS-B
04:42PM 42.5195 -99.4123 87° East 470 541 37,000  Level FlightAware ADS-B
04:43PM 42.5231 -99.3232 87° East 471 542 37,000  Level FlightAware ADS-B
04:43PM 42.5267 -99.2309 87° East 472 543 37,000  Level FlightAware ADS-B
04:45PM 42.5344 -99.0274 87° East 466 536 37,000  Level FlightAware ADS-B
04:45PM 42.5376 -98.9396 87° East 466 536 37,000  Level FlightAware ADS-B
04:46PM 42.5408 -98.8495 87° East 466 536 37,000  Level FlightAware ADS-B
04:46PM 42.5440 -98.7617 87° East 466 536 37,000  Level FlightAware ADS-B
04:47PM 42.5469 -98.6741 87° East 465 535 37,000  Level FlightAware ADS-B
04:47PM 42.5499 -98.5849 87° East 466 536 37,000  Level FlightAware ADS-B
04:48PM 42.5530 -98.4899 87° East 466 536 37,000  Level FlightAware ADS-B
04:48PM 42.5558 -98.4015 88° East 465 535 37,000  Level FlightAware ADS-B
04:49PM 42.5585 -98.3130 88° East 463 533 37,000  Level FlightAware ADS-B
04:49PM 42.5611 -98.2263 88° East 462 532 37,000  Level FlightAware ADS-B
04:50PM 42.5638 -98.1372 88° East 460 529 37,000  Level FlightAware ADS-B
04:50PM 42.5663 -98.0504 88° East 459 528 37,000  Level FlightAware ADS-B
04:51PM 42.5688 -97.9610 88° East 458 527 37,000 -300 Level FlightAware ADS-B
04:51PM 42.5712 -97.8725 88° East 462 532 36,700 -720 Descending FlightAware ADS-B
04:52PM 42.5735 -97.7835 88° East 460 529 36,300 -1,020 Descending FlightAware ADS-B
04:52PM 42.5769 -97.6498 88° East 465 535 35,400 -1,020 Descending FlightAware ADS-B
04:53PM 42.5792 -97.5596 88° East 476 548 35,000 -420 Descending FlightAware ADS-B
04:53PM 42.5814 -97.4696 88° East 480 552 35,000  Level FlightAware ADS-B
04:54PM 42.5834 -97.3789 88° East 477 549 35,000  Level FlightAware ADS-B
04:54PM 42.5853 -97.2887 88° East 475 547 35,000  Level FlightAware ADS-B
04:55PM 42.5872 -97.1982 88° East 471 542 35,000  Level FlightAware ADS-B
04:55PM 42.5891 -97.1078 88° East 468 539 35,000  Level FlightAware ADS-B
04:56PM 42.5909 -97.0183 88° East 465 535 35,000  Level FlightAware ADS-B
04:56PM 42.5926 -96.9308 88° East 464 534 35,000  Level FlightAware ADS-B
04:57PM 42.5941 -96.8431 89° East 462 532 35,000  Level FlightAware ADS-B
04:57PM 42.5956 -96.7562 89° East 462 532 35,000  Level FlightAware ADS-B
04:58PM 42.5971 -96.6690 89° East 461 531 35,000  Level FlightAware ADS-B
04:59PM 42.5985 -96.5812 89° East 461 531 35,000  Level FlightAware ADS-B
04:59PM 42.5998 -96.4948 89° East 460 529 35,000  Level FlightAware ADS-B
05:00PM 42.6012 -96.3980 89° East 461 531 35,000  Level FlightAware ADS-B
05:00PM 42.6025 -96.3017 89° East 461 531 35,000  Level FlightAware ADS-B
05:01PM 42.6037 -96.2103 89° East 460 529 35,000  Level FlightAware ADS-B
05:01PM 42.6047 -96.1198 89° East 460 529 35,000  Level FlightAware ADS-B
05:02PM 42.6057 -96.0320 89° East 460 529 35,000  Level FlightAware ADS-B
05:02PM 42.6067 -95.9380 89° East 460 529 35,000  Level FlightAware ADS-B
05:03PM 42.6075 -95.8500 89° East 460 529 35,000  Level FlightAware ADS-B
05:03PM 42.6082 -95.7613 89° East 460 529 35,000  Level FlightAware ADS-B
05:04PM 42.6090 -95.6729 89° East 460 529 35,000  Level FlightAware ADS-B
05:04PM 42.6096 -95.5857 89° East 460 529 35,000  Level FlightAware ADS-B
05:05PM 42.6101 -95.4980 90° East 459 528 35,000  Level FlightAware ADS-B
05:05PM 42.6107 -95.4113 89° East 459 528 35,000  Level FlightAware ADS-B
05:06PM 42.6111 -95.3249 90° East 458 527 35,000  Level FlightAware ADS-B
05:06PM 42.6115 -95.2384 90° East 457 526 35,000  Level FlightAware ADS-B
05:07PM 42.6117 -95.1515 90° East 456 525 35,000  Level FlightAware ADS-B
05:07PM 42.6120 -95.0661 90° East 455 524 35,000  Level FlightAware ADS-B
05:08PM 42.6121 -94.9800 90° East 453 521 35,000  Level FlightAware ADS-B
05:08PM 42.6122 -94.8939 90° East 452 520 35,000  Level FlightAware ADS-B
05:09PM 42.6122 -94.8078 90° East 453 521 35,000  Level FlightAware ADS-B
05:09PM 42.6122 -94.7144 90° East 452 520 35,000  Level FlightAware ADS-B
05:10PM 42.6121 -94.6046 90° East 451 519 35,000  Level FlightAware ADS-B
05:11PM 42.6119 -94.5199 90° East 450 518 35,000  Level FlightAware ADS-B
05:11PM 42.6116 -94.4348 90° East 448 516 35,000  Level FlightAware ADS-B
05:12PM 42.6113 -94.3484 90° East 447 514 35,000  Level FlightAware ADS-B
05:13PM 42.6120 -94.1580 90° East 443 510 35,000  Level FlightAware
05:14PM 42.6140 -94.0110 89° East 442 509 35,000  Level FlightAware
05:14PM 42.6140 -93.9070 90° East 442 509 35,000  Level FlightAware
05:15PM 42.6150 -93.7770 89° East 442 509 35,000  Level FlightAware
05:16PM 42.6160 -93.6440 89° East 442 509 35,000  Level FlightAware
05:16PM 42.6160 -93.5290 90° East 443 510 35,000  Level FlightAware
05:17PM 42.6160 -93.4060 90° East 445 512 35,000  Level FlightAware
05:18PM 42.6170 -93.2960 89° East 450 518 35,000  Level FlightAware
05:19PM 42.6170 -93.1700 90° East 453 521 35,000  Level FlightAware
05:19PM 42.6170 -93.0560 90° East 457 526 35,000  Level FlightAware
05:20PM 42.6170 -92.9290 90° East 462 532 35,000  Level FlightAware
05:21PM 42.6160 -92.8120 91° East 468 539 35,000  Level FlightAware
05:21PM 42.6160 -92.6870 90° East 475 547 35,000  Level FlightAware
05:22PM 42.6150 -92.5660 91° East 477 549 35,000  Level FlightAware
05:23PM 42.6140 -92.4340 91° East 478 550 35,000  Level FlightAware
05:23PM 42.6130 -92.3140 91° East 479 551 35,000  Level FlightAware
05:24PM 42.6120 -92.1760 91° East 481 554 35,000  Level FlightAware
05:25PM 42.6110 -92.0560 91° East 484 557 35,000  Level FlightAware
05:26PM 42.6100 -91.9350 91° East 487 560 35,000  Level FlightAware
05:26PM 42.6090 -91.8010 91° East 488 562 35,000  Level FlightAware
05:27PM 42.6070 -91.6770 91° East 491 565 35,000  Level FlightAware
05:28PM 42.6050 -91.5430 91° East 491 565 35,000  Level FlightAware
05:28PM 42.6030 -91.4190 91° East 489 563 35,000  Level FlightAware
05:29PM 42.6010 -91.2900 91° East 488 562 35,000  Level FlightAware
05:30PM 42.5990 -91.1630 91° East 489 563 35,000  Level FlightAware
05:31PM 42.5970 -91.0220 91° East 491 565 35,000  Level FlightAware
05:31PM 42.5940 -90.8990 92° East 492 566 35,000  Level FlightAware
05:32PM 42.5920 -90.7870 91° East 494 568 35,000  Level FlightAware
05:32PM 42.5890 -90.6690 92° East 495 570 35,000  Level FlightAware
05:33PM 42.5860 -90.5290 92° East 487 560 35,000  Level FlightAware
05:34PM 42.5840 -90.4190 91° East 482 555 35,000  Level FlightAware
05:34PM 42.5810 -90.2970 92° East 487 560 35,000  Level FlightAware
05:35PM 42.5770 -90.1710 92° East 488 562 35,000  Level FlightAware
05:36PM 42.5740 -90.0430 92° East 485 558 35,000  Level FlightAware
05:37PM 42.5700 -89.9090 92° East 483 556 35,000  Level FlightAware
05:37PM 42.5670 -89.7930 92° East 483 556 35,000  Level FlightAware
05:38PM 42.5630 -89.6560 92° East 483 556 35,000  Level FlightAware
05:39PM 42.5590 -89.5350 93° East 484 557 35,000  Level FlightAware
05:39PM 42.5560 -89.4260 92° East 482 555 35,000  Level FlightAware
05:40PM 42.5520 -89.3070 93° East 482 555 35,000  Level FlightAware
05:41PM 42.5470 -89.1750 93° East 480 552 35,000  Level FlightAware
05:41PM 42.5430 -89.0710 93° East 480 552 35,000  Level FlightAware
05:42PM 42.5390 -88.9460 92° East 479 551 35,000  Level FlightAware
05:43PM 42.5340 -88.8150 93° East 479 551 35,000  Level FlightAware
05:43PM 42.5300 -88.7170 93° East 480 552 35,000  Level FlightAware
05:44PM 42.5250 -88.5870 93° East 482 555 35,000  Level FlightAware
05:45PM 42.5200 -88.4650 93° East 483 556 35,000  Level FlightAware
05:45PM 42.5150 -88.3430 93° East 485 558 35,000  Level FlightAware
05:46PM 42.5090 -88.2020 93° East 486 559 35,000  Level FlightAware
05:47PM 42.5030 -88.0770 94° East 489 563 35,000  Level FlightAware
05:47PM 42.5000 -87.9520 92° East 494 568 35,000  Level FlightAware
05:48PM 42.5000 -87.8480 90° East 495 570 35,000  Level FlightAware
05:49PM 42.5000 -87.7100 90° East 496 571 35,000  Level FlightAware
05:49PM 42.4990 -87.5890 91° East 498 573 35,000  Level FlightAware
05:50PM 42.4990 -87.4880 90° East 500 575 35,000  Level FlightAware
05:51PM 42.4980 -87.3340 90° East 502 578 35,000  Level FlightAware
05:51PM 42.4980 -87.2270 90° East 502 578 35,000  Level FlightAware
05:52PM 42.4970 -87.0760 90° East 499 574 35,000  Level FlightAware
05:53PM 42.4950 -86.9440 91° East 499 574 35,000  Level FlightAware
05:53PM 42.4940 -86.8260 91° East 498 573 35,000  Level FlightAware
05:54PM 42.4930 -86.6910 91° East 499 574 35,000  Level FlightAware
05:55PM 42.4910 -86.5650 91° East 500 575 35,000  Level FlightAware
05:55PM 42.4900 -86.4450 91° East 501 577 35,000  Level FlightAware
05:56PM 42.4880 -86.3150 91° East 502 578 35,000  Level FlightAware
05:57PM 42.4860 -86.1880 91° East 504 580 35,000  Level FlightAware
05:57PM 42.4850 -86.0820 91° East 505 581 35,000  Level FlightAware
05:58PM 42.4820 -85.9440 92° East 505 581 35,000  Level FlightAware
05:59PM 42.4800 -85.8180 91° East 504 580 35,000  Level FlightAware
05:59PM 42.4770 -85.6910 92° East 504 580 35,000  Level FlightAware
06:00PM 42.4750 -85.5650 91° East 504 580 35,000  Level FlightAware
06:01PM 42.4720 -85.4390 92° East 504 580 35,000  Level FlightAware
06:02PM 42.4690 -85.2970 92° East 506 582 35,000  Level FlightAware
06:02PM 42.4660 -85.1680 92° East 507 583 35,000  Level FlightAware
06:03PM 42.4630 -85.0400 92° East 507 583 35,000  Level FlightAware
06:04PM 42.4590 -84.9080 92° East 507 583 35,000  Level FlightAware
06:04PM 42.4530 -84.7900 94° East 505 581 35,000  Level FlightAware
06:05PM 42.4450 -84.6560 95° East 505 581 35,000  Level FlightAware
06:06PM 42.4380 -84.5250 94° East 506 582 35,000  Level FlightAware
06:06PM 42.4310 -84.4150 95° East 506 582 35,000  Level FlightAware
06:07PM 42.4240 -84.2780 94° East 506 582 35,000  Level FlightAware
06:08PM 42.4160 -84.1480 95° East 504 580 35,000  Level FlightAware
06:08PM 42.4100 -84.0390 94° East 504 580 35,000  Level FlightAware
06:09PM 42.4010 -83.8970 95° East 505 581 35,000  Level FlightAware
06:10PM 42.3890 -83.7070 95° East 505 581 35,000  Level FlightAware
06:11PM 42.3790 -83.5500 95° East 507 583 35,000  Level FlightAware
06:12PM 42.3700 -83.4150 95° East 507 583 35,000  Level FlightAware
06:12PM 42.3620 -83.2950 95° East 506 582 35,000  Level FlightAware
06:13PM 42.3540 -83.1740 95° East 506 582 35,000  Level FlightAware
06:14PM 42.3400 -82.9750 95° East 505 581 35,000  Level FlightAware
06:15PM 42.3330 -82.8660 95° East 505 581 35,000  Level FlightAware
06:16PM 42.3190 -82.6830 96° East 505 581 35,000  Level FlightAware
06:16PM 42.3100 -82.5510 95° East 506 582 35,000  Level FlightAware
06:17PM 42.3000 -82.4170 96° East 508 585 35,000  Level FlightAware
06:18PM 42.2900 -82.2870 96° East 509 586 35,000 -240 Level FlightAware
06:18PM 42.2820 -82.1760 96° East 513 590 34,700 -780 Descending FlightAware
06:19PM 42.2720 -82.0560 96° East 509 586 34,100 -540 Descending FlightAware
06:20PM 42.2610 -81.9080 96° East 510 587 34,000 -120 Descending FlightAware
06:20PM 42.2540 -81.8290 97° East 510 587 34,000  Level FlightAware
06:21PM 42.2420 -81.6800 96° East 511 588 34,000  Level FlightAware
06:21PM 42.2330 -81.5620 96° East 514 592 34,000  Level FlightAware
06:22PM 42.2190 -81.3980 97° East 515 593 34,000  Level FlightAware
06:23PM 42.2110 -81.3040 97° East 515 593 34,000  Level FlightAware
06:24PM 42.1990 -81.1590 96° East 516 594 34,000  Level FlightAware
06:24PM 42.1880 -81.0370 97° East 517 595 34,000  Level FlightAware
06:25PM 42.1750 -80.8880 97° East 518 596 34,000  Level FlightAware
06:26PM 42.1630 -80.7490 97° East 517 595 34,000  Level FlightAware
06:26PM 42.1540 -80.6530 97° East 515 593 34,000  Level FlightAware
06:27PM 42.1400 -80.5040 97° East 514 592 34,000  Level FlightAware
06:28PM 42.1290 -80.3840 97° East 514 592 34,000  Level FlightAware
06:28PM 42.1180 -80.2630 97° East 512 589 34,000  Level FlightAware
06:29PM 42.1070 -80.1420 97° East 512 589 34,000  Level FlightAware
06:30PM 42.0930 -79.9970 97° East 512 589 34,000  Level FlightAware
06:30PM 42.0830 -79.8940 97° East 512 589 34,000  Level FlightAware
06:31PM 42.0690 -79.7570 98° East 512 589 34,000  Level FlightAware
06:31PM 42.0570 -79.6290 97° East 512 589 34,000  Level FlightAware
06:32PM 42.0430 -79.4970 98° East 512 589 34,000  Level FlightAware
06:33PM 42.0310 -79.3720 97° East 512 589 34,000  Level FlightAware
06:33PM 42.0200 -79.2480 97° East 513 590 34,000  Level FlightAware
06:34PM 42.0260 -79.1310 86° East 513 590 34,000  Level FlightAware
06:35PM 42.0320 -78.9980 86° East 510 587 34,000  Level FlightAware
06:35PM 42.0270 -78.8860 93° East 506 582 34,000  Level FlightAware
06:36PM 42.0060 -78.7390 101° East 505 581 34,000  Level FlightAware
06:37PM 41.9890 -78.6230 101° East 504 580 34,000  Level FlightAware
06:37PM 41.9700 -78.5000 102° East 504 580 34,000  Level FlightAware
06:38PM 41.9560 -78.4150 102° East 505 581 34,000  Level FlightAware
06:39PM 41.9390 -78.3050 102° East 505 581 34,000  Level FlightAware
06:39PM 41.9180 -78.1800 103° East 505 581 34,000  Level FlightAware
06:40PM 41.9050 -78.0970 102° East 506 582 34,000  Level FlightAware
06:40PM 41.8890 -77.9980 102° East 506 582 34,000  Level FlightAware
06:41PM 41.8700 -77.8860 103° East 505 581 34,000  Level FlightAware
06:41PM 41.8550 -77.8180 106° East 503 579 34,000  Level FlightAware
06:42PM 41.8220 -77.6850 108° East 503 579 34,000  Level FlightAware
06:43PM 41.7910 -77.5690 110° East 504 580 34,000  Level FlightAware
06:43PM 41.7610 -77.4580 110° East 504 580 34,000  Level FlightAware
06:44PM 41.7170 -77.2930 110° East 502 578 34,000  Level FlightAware
06:45PM 41.6900 -77.1920 110° East 501 577 34,000  Level FlightAware
06:45PM 41.6630 -77.0940 110° East 501 577 34,000  Level FlightAware
06:46PM 41.6253 -76.9538 110° East 502 578 34,000  Level FlightAware ADS-B
06:47PM 41.6015 -76.8663 110° East 502 578 34,000  Level FlightAware ADS-B
06:47PM 41.5763 -76.7745 110° East 501 577 34,000  Level FlightAware ADS-B
06:48PM 41.5505 -76.6804 110° East 500 575 34,000  Level FlightAware ADS-B
06:48PM 41.5258 -76.5906 110° East 500 575 34,000  Level FlightAware ADS-B
06:49PM 41.5016 -76.5028 110° East 500 575 34,000  Level FlightAware ADS-B
06:49PM 41.4768 -76.4135 110° East 500 575 34,000  Level FlightAware ADS-B
06:50PM 41.4517 -76.3230 110° East 499 574 34,000  Level FlightAware ADS-B
06:50PM 41.4272 -76.2353 110° East 498 573 34,000  Level FlightAware ADS-B
06:51PM 41.4016 -76.1438 110° East 498 573 34,000  Level FlightAware ADS-B
06:51PM 41.3767 -76.0553 111° Southeast 497 572 34,000  Level FlightAware ADS-B
06:52PM 41.3516 -75.9663 111° Southeast 496 571 34,000 -300 Level FlightAware ADS-B
06:52PM 41.3276 -75.8814 111° Southeast 491 565 33,700 -1,440 Descending FlightAware ADS-B
06:53PM 41.3034 -75.7964 111° Southeast 489 563 32,600 -2,820 Descending FlightAware ADS-B
06:53PM 41.2779 -75.7083 111° Southeast 492 566 30,800 -3,600 Descending FlightAware ADS-B
06:54PM 41.2511 -75.6236 113° Southeast 496 571 28,900 -3,900 Descending FlightAware ADS-B
06:54PM 41.2213 -75.5339 114° Southeast 499 574 26,800 -3,540 Descending FlightAware ADS-B
06:55PM 41.1926 -75.4485 114° Southeast 490 564 25,200 -3,000 Descending FlightAware ADS-B
06:55PM 41.1646 -75.3652 114° Southeast 483 556 23,700 -2,100 Descending FlightAware ADS-B
06:56PM 41.1374 -75.2849 114° Southeast 474 545 23,100 -720 Descending FlightAware ADS-B
06:56PM 41.1105 -75.2056 114° Southeast 469 540 23,000 -120 Descending FlightAware ADS-B
06:57PM 41.0824 -75.1227 114° Southeast 471 542 23,000  Level FlightAware ADS-B
06:57PM 41.0554 -75.0435 114° Southeast 473 544 23,000  Level FlightAware ADS-B
06:58PM 41.0249 -74.9538 114° Southeast 474 545 23,000  Level FlightAware ADS-B
06:58PM 41.0138 -74.9207 114° Southeast 474 545 23,000  Level FlightAware ADS-B
06:58PM 41.0024 -74.8799 110° East 475 547 23,000  Level FlightAware ADS-B
06:59PM 40.9953 -74.8467 106° East 477 549 23,000  Level FlightAware ADS-B
06:59PM 40.9838 -74.7575 100° East 480 552 23,000 -480 Level FlightAware ADS-B
07:00PM 40.9735 -74.6633 98° East 481 554 22,500 -1,800 Descending FlightAware ADS-B
07:00PM 40.9638 -74.5736 98° East 478 550 21,100 -2,280 Descending FlightAware ADS-B
07:01PM 40.9545 -74.4882 98° East 458 527 20,200 -1,920 Descending FlightAware ADS-B
07:01PM 40.9451 -74.4032 98° East 446 513 19,200 -1,200 Descending FlightAware ADS-B
07:02PM 40.9358 -74.3194 98° East 431 496 19,000 -240 Descending FlightAware ADS-B
07:02PM 40.9271 -74.2420 98° East 399 459 19,000  Level FlightAware ADS-B
07:03PM 40.9226 -74.2020 98° East 379 436 19,000  Level FlightAware ADS-B
07:03PM 40.9193 -74.1744 99° East 366 421 19,000  Level FlightAware ADS-B
07:03PM 40.9168 -74.1598 103° East 360 414 19,000  Level FlightAware ADS-B
07:03PM 40.9157 -74.1545 105° East 358 412 19,000  Level FlightAware ADS-B
07:03PM 40.9112 -74.1365 108° East 353 406 19,000  Level FlightAware ADS-B
07:03PM 40.9033 -74.1133 114° Southeast 349 402 19,000  Level FlightAware ADS-B
07:03PM 40.9020 -74.1103 120° Southeast 349 402 19,000  Level FlightAware ADS-B
07:04PM 40.8869 -74.0765 121° Southeast 347 399 19,000  Level FlightAware ADS-B
07:04PM 40.8758 -74.0534 122° Southeast 349 402 19,000  Level FlightAware ADS-B
07:04PM 40.8567 -74.0153 124° Southeast 351 404 19,000 -240 Level FlightAware ADS-B
07:04PM 40.8487 -73.9993 123° Southeast 350 403 18,900 -1,020 Descending FlightAware ADS-B
07:05PM 40.8299 -73.9618 124° Southeast 347 399 18,500 -1,200 Descending FlightAware ADS-B
07:05PM 40.8084 -73.9185 123° Southeast 343 395 18,000 -1,380 Descending FlightAware ADS-B
07:05PM 40.8027 -73.9070 123° Southeast 342 394 17,800 -1,680 Descending FlightAware ADS-B
07:06PM 40.7762 -73.8535 123° Southeast 339 390 17,000 -1,740 Descending FlightAware ADS-B
07:06PM 40.7661 -73.8339 124° Southeast 342 394 16,600 -2,040 Descending FlightAware ADS-B
07:06PM 40.7626 -73.8276 126° Southeast 337 388 16,500 -2,040 Descending FlightAware ADS-B
07:06PM 40.7445 -73.8044 136° Southeast 331 381 15,900 -2,040 Descending FlightAware ADS-B
07:06PM 40.7393 -73.8001 148° Southeast 328 377 15,800 -2,280 Descending FlightAware ADS-B
07:06PM 40.7334 -73.7962 153° Southeast 325 374 15,600 -2,340 Descending FlightAware ADS-B
07:07PM 40.7097 -73.7857 161° South 316 364 15,000 -2,460 Descending FlightAware ADS-B
07:07PM 40.6472 -73.7626 164° South 307 353 13,100 -2,580 Descending FlightAware ADS-B
07:08PM 40.6057 -73.7465 164° South 299 344 11,800 -2,460 Descending FlightAware ADS-B
07:08PM 40.5665 -73.7308 163° South 293 337 10,600 -2,520 Descending FlightAware ADS-B
07:09PM 40.5459 -73.7226 163° South 292 336 9,900 -2,520 Descending FlightAware ADS-B
07:09PM 40.5260 -73.7148 163° South 290 334 9,300 -2,340 Descending FlightAware ADS-B
07:09PM 40.5025 -73.7057 164° South 284 327 8,600 -2,280 Descending FlightAware ADS-B
07:10PM 40.4822 -73.6978 164° South 280 322 8,000 -2,220 Descending FlightAware ADS-B
07:10PM 40.4625 -73.6898 163° South 280 322 7,400 -2,580 Descending FlightAware ADS-B
07:10PM 40.4554 -73.6872 164° South 279 321 7,100 -3,000 Descending FlightAware ADS-B
07:10PM 40.4491 -73.6858 170° South 276 318 6,900 -2,520 Descending FlightAware ADS-B
07:10PM 40.4404 -73.6858 180° South 271 312 6,600 -2,340 Descending FlightAware ADS-B
07:10PM 40.4336 -73.6876 191° South 269 310 6,400 -2,220 Descending FlightAware ADS-B
07:10PM 40.4279 -73.6904 201° Southwest 264 304 6,200 -2,280 Descending FlightAware ADS-B
07:10PM 40.4247 -73.6926 208° Southwest 263 303 6,100 -1,740 Descending FlightAware ADS-B
07:10PM 40.4209 -73.6959 213° Southwest 260 299 6,000 -2,280 Descending FlightAware ADS-B
07:10PM 40.4164 -73.7006 218° Southwest 258 297 5,800 -3,000 Descending FlightAware ADS-B
07:11PM 40.4129 -73.7046 221° Southwest 256 295 5,600 -2,400 Descending FlightAware ADS-B
07:11PM 40.3998 -73.7213 224° Southwest 256 295 5,000 -2,400 Descending FlightAware ADS-B
07:11PM 40.3852 -73.7405 225° Southwest 255 293 4,300 -2,340 Descending FlightAware ADS-B
07:11PM 40.3721 -73.7632 233° Southwest 250 288 3,600 -2,160 Descending FlightAware ADS-B
07:12PM 40.3699 -73.7710 250° West 249 287 3,400 -1,680 Descending FlightAware ADS-B
07:12PM 40.3648 -73.7995 257° West 254 292 2,900 -840 Descending FlightAware ADS-B
07:12PM 40.3633 -73.8367 267° West 249 287 2,800 -240 Descending FlightAware ADS-B
07:13PM 40.3726 -73.8895 283° West 213 245 2,700  Descending FlightAware ADS-B
07:13PM 40.3795 -73.9014 307° West 215 247 2,800 240 Climbing FlightAware ADS-B
07:13PM 40.3868 -73.9121 312° West 218 251 2,800 -240 Level FlightAware ADS-B
07:14PM 40.3992 -73.9296 313° West 219 252 2,700 -240 Descending FlightAware ADS-B
07:14PM 40.4059 -73.9365 322° Northwest 225 259 2,700 420 Level FlightAware ADS-B
07:14PM 40.4101 -73.9395 331° Northwest 226 260 2,800 360 Climbing FlightAware ADS-B
07:14PM 40.4214 -73.9459 337° Northwest 228 262 2,800  Level FlightAware ADS-B
07:14PM 40.4285 -73.9481 347° North 230 265 2,800  Level FlightAware ADS-B
07:14PM 40.4503 -73.9521 352° North 229 264 2,800  Level FlightAware ADS-B
07:15PM 40.4810 -73.9570 353° North 202 232 2,800  Level FlightAware
07:16PM 40.5080 -73.9610 354° North 199 229 2,800 -300 Level FlightAware
07:16PM 40.5440 -73.9510 12° North 210 242 2,500 -660 Descending FlightAware
07:17PM 40.5670 -73.9310 33° Northeast 209 241 2,100 -1,020 Descending FlightAware
07:17PM 40.5900 -73.9120 32° Northeast 210 242 1,600 -900 Descending FlightAware
07:18PM 40.6130 -73.8930 32° Northeast 198 228 1,300 -780 Descending FlightAware
07:18PM 40.6340 -73.8780 28° Northeast 171 197 900 -780 Descending FlightAware
07:19PM 40.6520 -73.8650 29° Northeast 156 180 600 -480 Descending FlightAware
07:19PM 40.6660 -73.8470 44° Northeast 153 176 500 -180 Descending FlightAware
07:19PM 40.6680 -73.8360 77° East 151 174 500  Level FlightAware
07:20PM 40.6620 -73.8000 102° East 131 151 -720 Descending FlightAware
07:20PM 40.6580 -73.7910 120° Southeast 135 155  Level FlightAware
07:21PM 40.6500 -73.7730 120° Southeast 96 110  Level FlightAware
07:21PM 40.6470 -73.7670 123° Southeast 18 21  Level FlightAware